sensor_id;sensor_type;location;lat;lon;timestamp;P1;P2;P0
60266;PMS5003;46125;61.360;-149.532;2022-11-03T00:01:11;1;1;
60266;PMS5003;46125;61.360;-149.532;2022-11-03T00:03:40;1;1;
60266;PMS5003;46125;61.360;-149.532;2022-11-03T00:06:09;1;1;
60266;PMS5003;46125;61.360;-149.532;2022-11-03T00:08:38;3;1;
60266;PMS5003;46125;61.360;-149.532;2022-11-03T00:11:09;5;4;
60266;PMS5003;46125;61.360;-149.532;2022-11-03T00:13:40;2;2;
60266;PMS5003;46125;61.360;-149.532;2022-11-03T00:16:10;4;3;
60266;PMS5003;46125;61.360;-149.532;2022-11-03T00:18:39;4;4;
60266;PMS5003;46125;61.360;-149.532;2022-11-03T00:21:08;2;2;
60266;PMS5003;46125;61.360;-149.532;2022-11-03T00:23:39;2;2;
60266;PMS5003;46125;61.360;-149.532;2022-11-03T00:26:10;3;3;
60266;PMS5003;46125;61.360;-149.532;2022-11-03T00:28:41;3;3;
60266;PMS5003;46125;61.360;-149.532;2022-11-03T00:31:11;5;5;
60266;PMS5003;46125;61.360;-149.532;2022-11-03T00:33:41;9;4;
60266;PMS5003;46125;61.360;-149.532;2022-11-03T00:36:11;3;3;
60266;PMS5003;46125;61.360;-149.532;2022-11-03T00:38:42;4;4;
60266;PMS5003;46125;61.360;-149.532;2022-11-03T00:41:12;4;4;
60266;PMS5003;46125;61.360;-149.532;2022-11-03T00:43:41;5;5;
60266;PMS5003;46125;61.360;-149.532;2022-11-03T00:46:10;5;5;
60266;PMS5003;46125;61.360;-149.532;2022-11-03T00:48:38;5;5;
60266;PMS5003;46125;61.360;-149.532;2022-11-03T00:51:08;7;4;
60266;PMS5003;46125;61.360;-149.532;2022-11-03T00:53:39;7;6;
60266;PMS5003;46125;61.360;-149.532;2022-11-03T00:56:10;5;4;
60266;PMS5003;46125;61.360;-149.532;2022-11-03T00:58:39;7;5;
60266;PMS5003;46125;61.360;-149.532;2022-11-03T01:01:10;7;4;
60266;PMS5003;46125;61.360;-149.532;2022-11-03T01:03:41;5;5;
60266;PMS5003;46125;61.360;-149.532;2022-11-03T01:06:11;4;4;
60266;PMS5003;46125;61.360;-149.532;2022-11-03T01:08:40;6;4;
60266;PMS5003;46125;61.360;-149.532;2022-11-03T01:11:09;3;3;
60266;PMS5003;46125;61.360;-149.532;2022-11-03T01:13:39;9;4;
60266;PMS5003;46125;61.360;-149.532;2022-11-03T01:16:08;3;3;
60266;PMS5003;46125;61.360;-149.532;2022-11-03T01:18:37;6;4;
60266;PMS5003;46125;61.360;-149.532;2022-11-03T01:21:05;4;4;
60266;PMS5003;46125;61.360;-149.532;2022-11-03T01:23:34;5;3;
60266;PMS5003;46125;61.360;-149.532;2022-11-03T01:26:03;4;4;
60266;PMS5003;46125;61.360;-149.532;2022-11-03T01:28:32;5;4;
60266;PMS5003;46125;61.360;-149.532;2022-11-03T01:31:02;4;4;
60266;PMS5003;46125;61.360;-149.532;2022-11-03T01:33:31;5;5;
60266;PMS5003;46125;61.360;-149.532;2022-11-03T01:36:00;3;3;
60266;PMS5003;46125;61.360;-149.532;2022-11-03T01:38:30;4;4;
60266;PMS5003;46125;61.360;-149.532;2022-11-03T01:40:59;4;1;
60266;PMS5003;46125;61.360;-149.532;2022-11-03T01:43:28;3;2;
60266;PMS5003;46125;61.360;-149.532;2022-11-03T01:45:58;1;1;
60266;PMS5003;46125;61.360;-149.532;2022-11-03T01:48:34;1;1;
60266;PMS5003;46125;61.360;-149.532;2022-11-03T01:51:07;7;5;
60266;PMS5003;46125;61.360;-149.532;2022-11-03T01:53:42;4;4;
60266;PMS5003;46125;61.360;-149.532;2022-11-03T01:56:14;8;7;
60266;PMS5003;46125;61.360;-149.532;2022-11-03T01:58:45;21;16;
60266;PMS5003;46125;61.360;-149.532;2022-11-03T02:01:16;3;3;
60266;PMS5003;46125;61.360;-149.532;2022-11-03T02:03:46;14;9;
60266;PMS5003;46125;61.360;-149.532;2022-11-03T02:06:19;3;3;
60266;PMS5003;46125;61.360;-149.532;2022-11-03T02:08:50;3;3;
60266;PMS5003;46125;61.360;-149.532;2022-11-03T02:11:24;4;2;
60266;PMS5003;46125;61.360;-149.532;2022-11-03T02:13:52;10;5;
60266;PMS5003;46125;61.360;-149.532;2022-11-03T02:16:21;3;3;
60266;PMS5003;46125;61.360;-149.532;2022-11-03T02:18:51;5;5;
60266;PMS5003;46125;61.360;-149.532;2022-11-03T02:21:24;4;4;
60266;PMS5003;46125;61.360;-149.532;2022-11-03T02:23:57;2;2;
60266;PMS5003;46125;61.360;-149.532;2022-11-03T02:26:29;3;3;
60266;PMS5003;46125;61.360;-149.532;2022-11-03T02:28:57;2;2;
60266;PMS5003;46125;61.360;-149.532;2022-11-03T02:31:27;7;3;
60266;PMS5003;46125;61.360;-149.532;2022-11-03T02:34:02;1;1;
60266;PMS5003;46125;61.360;-149.532;2022-11-03T02:36:34;1;1;
60266;PMS5003;46125;61.360;-149.532;2022-11-03T02:39:10;0;0;
60266;PMS5003;46125;61.360;-149.532;2022-11-03T02:41:42;1;0;
60266;PMS5003;46125;61.360;-149.532;2022-11-03T02:44:13;1;0;
60266;PMS5003;46125;61.360;-149.532;2022-11-03T02:46:46;4;4;
60266;PMS5003;46125;61.360;-149.532;2022-11-03T02:49:18;2;2;
60266;PMS5003;46125;61.360;-149.532;2022-11-03T02:51:46;32;30;
60266;PMS5003;46125;61.360;-149.532;2022-11-03T02:54:15;5;5;
60266;PMS5003;46125;61.360;-149.532;2022-11-03T02:56:49;10;10;
60266;PMS5003;46125;61.360;-149.532;2022-11-03T02:59:21;26;20;
60266;PMS5003;46125;61.360;-149.532;2022-11-03T03:01:55;8;5;
60266;PMS5003;46125;61.360;-149.532;2022-11-03T03:04:29;5;4;
60266;PMS5003;46125;61.360;-149.532;2022-11-03T03:07:04;1;1;
60266;PMS5003;46125;61.360;-149.532;2022-11-03T03:09:38;3;1;
60266;PMS5003;46125;61.360;-149.532;2022-11-03T03:12:12;2;2;
60266;PMS5003;46125;61.360;-149.532;2022-11-03T03:14:45;3;1;
60266;PMS5003;46125;61.360;-149.532;2022-11-03T03:17:17;0;0;
60266;PMS5003;46125;61.360;-149.532;2022-11-03T03:19:52;1;1;
60266;PMS5003;46125;61.360;-149.532;2022-11-03T03:22:27;1;1;
60266;PMS5003;46125;61.360;-149.532;2022-11-03T03:25:02;1;1;
60266;PMS5003;46125;61.360;-149.532;2022-11-03T03:27:40;1;1;
60266;PMS5003;46125;61.360;-149.532;2022-11-03T03:30:13;3;1;
60266;PMS5003;46125;61.360;-149.532;2022-11-03T03:32:45;2;2;
60266;PMS5003;46125;61.360;-149.532;2022-11-03T03:35:16;2;1;
60266;PMS5003;46125;61.360;-149.532;2022-11-03T03:37:49;1;1;
60266;PMS5003;46125;61.360;-149.532;2022-11-03T03:40:21;1;1;
60266;PMS5003;46125;61.360;-149.532;2022-11-03T03:42:54;2;2;
60266;PMS5003;46125;61.360;-149.532;2022-11-03T03:45:24;1;1;
60266;PMS5003;46125;61.360;-149.532;2022-11-03T03:48:00;1;1;
60266;PMS5003;46125;61.360;-149.532;2022-11-03T03:50:30;2;1;
60266;PMS5003;46125;61.360;-149.532;2022-11-03T03:53:05;1;1;
60266;PMS5003;46125;61.360;-149.532;2022-11-03T03:55:37;2;1;
60266;PMS5003;46125;61.360;-149.532;2022-11-03T03:58:09;0;0;
60266;PMS5003;46125;61.360;-149.532;2022-11-03T04:00:40;1;1;
60266;PMS5003;46125;61.360;-149.532;2022-11-03T04:03:13;0;0;
60266;PMS5003;46125;61.360;-149.532;2022-11-03T04:05:44;1;1;
60266;PMS5003;46125;61.360;-149.532;2022-11-03T04:08:13;1;1;
60266;PMS5003;46125;61.360;-149.532;2022-11-03T04:10:42;2;1;
60266;PMS5003;46125;61.360;-149.532;2022-11-03T04:13:13;0;0;
60266;PMS5003;46125;61.360;-149.532;2022-11-03T04:15:41;2;1;
60266;PMS5003;46125;61.360;-149.532;2022-11-03T04:18:10;0;0;
60266;PMS5003;46125;61.360;-149.532;2022-11-03T04:20:39;0;0;
60266;PMS5003;46125;61.360;-149.532;2022-11-03T04:23:07;2;2;
60266;PMS5003;46125;61.360;-149.532;2022-11-03T04:25:36;0;0;
60266;PMS5003;46125;61.360;-149.532;2022-11-03T04:28:07;0;0;
60266;PMS5003;46125;61.360;-149.532;2022-11-03T04:30:38;1;1;
60266;PMS5003;46125;61.360;-149.532;2022-11-03T04:33:09;1;1;
60266;PMS5003;46125;61.360;-149.532;2022-11-03T04:35:41;1;0;
60266;PMS5003;46125;61.360;-149.532;2022-11-03T04:38:19;0;0;
60266;PMS5003;46125;61.360;-149.532;2022-11-03T04:40:51;0;0;
60266;PMS5003;46125;61.360;-149.532;2022-11-03T04:43:22;1;1;
60266;PMS5003;46125;61.360;-149.532;2022-11-03T04:45:57;4;1;
60266;PMS5003;46125;61.360;-149.532;2022-11-03T04:48:31;2;2;
60266;PMS5003;46125;61.360;-149.532;2022-11-03T04:51:01;2;2;
60266;PMS5003;46125;61.360;-149.532;2022-11-03T04:53:39;3;2;
60266;PMS5003;46125;61.360;-149.532;2022-11-03T04:56:15;13;7;
60266;PMS5003;46125;61.360;-149.532;2022-11-03T04:58:47;10;4;
60266;PMS5003;46125;61.360;-149.532;2022-11-03T05:01:17;5;5;
60266;PMS5003;46125;61.360;-149.532;2022-11-03T05:03:48;6;5;
60266;PMS5003;46125;61.360;-149.532;2022-11-03T05:06:18;24;17;
60266;PMS5003;46125;61.360;-149.532;2022-11-03T05:08:50;14;13;
60266;PMS5003;46125;61.360;-149.532;2022-11-03T05:11:24;26;21;
60266;PMS5003;46125;61.360;-149.532;2022-11-03T05:13:58;23;20;
60266;PMS5003;46125;61.360;-149.532;2022-11-03T05:16:29;15;7;
60266;PMS5003;46125;61.360;-149.532;2022-11-03T05:18:57;5;5;
60266;PMS5003;46125;61.360;-149.532;2022-11-03T05:21:31;5;5;
60266;PMS5003;46125;61.360;-149.532;2022-11-03T05:24:08;4;3;
60266;PMS5003;46125;61.360;-149.532;2022-11-03T05:26:39;4;1;
60266;PMS5003;46125;61.360;-149.532;2022-11-03T05:29:12;1;1;
60266;PMS5003;46125;61.360;-149.532;2022-11-03T05:31:45;1;1;
60266;PMS5003;46125;61.360;-149.532;2022-11-03T05:34:20;0;0;
60266;PMS5003;46125;61.360;-149.532;2022-11-03T05:36:58;0;0;
60266;PMS5003;46125;61.360;-149.532;2022-11-03T05:39:39;0;0;
60266;PMS5003;46125;61.360;-149.532;2022-11-03T05:42:15;0;0;
60266;PMS5003;46125;61.360;-149.532;2022-11-03T05:44:54;0;0;
60266;PMS5003;46125;61.360;-149.532;2022-11-03T05:47:24;0;0;
60266;PMS5003;46125;61.360;-149.532;2022-11-03T05:50:00;0;0;
60266;PMS5003;46125;61.360;-149.532;2022-11-03T05:52:37;0;0;
60266;PMS5003;46125;61.360;-149.532;2022-11-03T05:55:11;1;0;
60266;PMS5003;46125;61.360;-149.532;2022-11-03T05:57:50;0;0;
60266;PMS5003;46125;61.360;-149.532;2022-11-03T06:00:24;0;0;
60266;PMS5003;46125;61.360;-149.532;2022-11-03T06:02:55;1;1;
60266;PMS5003;46125;61.360;-149.532;2022-11-03T06:05:26;0;0;
60266;PMS5003;46125;61.360;-149.532;2022-11-03T06:07:58;0;0;
60266;PMS5003;46125;61.360;-149.532;2022-11-03T06:10:30;0;0;
60266;PMS5003;46125;61.360;-149.532;2022-11-03T06:13:06;0;0;
60266;PMS5003;46125;61.360;-149.532;2022-11-03T06:15:41;0;0;
60266;PMS5003;46125;61.360;-149.532;2022-11-03T06:18:13;1;1;
60266;PMS5003;46125;61.360;-149.532;2022-11-03T06:20:46;5;4;
60266;PMS5003;46125;61.360;-149.532;2022-11-03T06:23:18;3;3;
60266;PMS5003;46125;61.360;-149.532;2022-11-03T06:25:48;3;3;
60266;PMS5003;46125;61.360;-149.532;2022-11-03T06:28:20;1;0;
60266;PMS5003;46125;61.360;-149.532;2022-11-03T06:30:51;1;1;
60266;PMS5003;46125;61.360;-149.532;2022-11-03T06:33:21;1;1;
60266;PMS5003;46125;61.360;-149.532;2022-11-03T06:35:53;4;4;
60266;PMS5003;46125;61.360;-149.532;2022-11-03T06:38:26;12;7;
60266;PMS5003;46125;61.360;-149.532;2022-11-03T06:40:57;9;7;
60266;PMS5003;46125;61.360;-149.532;2022-11-03T06:43:35;1;1;
60266;PMS5003;46125;61.360;-149.532;2022-11-03T06:46:11;1;1;
60266;PMS5003;46125;61.360;-149.532;2022-11-03T06:48:45;1;1;
60266;PMS5003;46125;61.360;-149.532;2022-11-03T06:51:17;1;0;
60266;PMS5003;46125;61.360;-149.532;2022-11-03T06:53:47;0;0;
60266;PMS5003;46125;61.360;-149.532;2022-11-03T06:56:18;0;0;
60266;PMS5003;46125;61.360;-149.532;2022-11-03T06:58:49;0;0;
60266;PMS5003;46125;61.360;-149.532;2022-11-03T07:01:21;1;0;
60266;PMS5003;46125;61.360;-149.532;2022-11-03T07:03:55;0;0;
60266;PMS5003;46125;61.360;-149.532;2022-11-03T07:06:27;0;0;
60266;PMS5003;46125;61.360;-149.532;2022-11-03T07:08:58;0;0;
60266;PMS5003;46125;61.360;-149.532;2022-11-03T07:11:29;0;0;
60266;PMS5003;46125;61.360;-149.532;2022-11-03T07:14:01;0;0;
60266;PMS5003;46125;61.360;-149.532;2022-11-03T07:16:39;0;0;
60266;PMS5003;46125;61.360;-149.532;2022-11-03T07:19:10;0;0;
60266;PMS5003;46125;61.360;-149.532;2022-11-03T07:21:45;0;0;
60266;PMS5003;46125;61.360;-149.532;2022-11-03T07:24:17;0;0;
60266;PMS5003;46125;61.360;-149.532;2022-11-03T07:26:52;0;0;
60266;PMS5003;46125;61.360;-149.532;2022-11-03T07:29:26;0;0;
60266;PMS5003;46125;61.360;-149.532;2022-11-03T07:31:59;0;0;
60266;PMS5003;46125;61.360;-149.532;2022-11-03T07:34:30;0;0;
60266;PMS5003;46125;61.360;-149.532;2022-11-03T07:36:59;0;0;
60266;PMS5003;46125;61.360;-149.532;2022-11-03T07:39:31;0;0;
60266;PMS5003;46125;61.360;-149.532;2022-11-03T07:42:08;1;0;
60266;PMS5003;46125;61.360;-149.532;2022-11-03T07:44:41;0;0;
60266;PMS5003;46125;61.360;-149.532;2022-11-03T07:47:10;0;0;
60266;PMS5003;46125;61.360;-149.532;2022-11-03T07:49:40;0;0;
60266;PMS5003;46125;61.360;-149.532;2022-11-03T07:52:12;0;0;
60266;PMS5003;46125;61.360;-149.532;2022-11-03T07:54:43;0;0;
60266;PMS5003;46125;61.360;-149.532;2022-11-03T07:57:12;0;0;
60266;PMS5003;46125;61.360;-149.532;2022-11-03T07:59:47;2;2;
60266;PMS5003;46125;61.360;-149.532;2022-11-03T08:02:23;5;5;
60266;PMS5003;46125;61.360;-149.532;2022-11-03T08:04:59;5;4;
60266;PMS5003;46125;61.360;-149.532;2022-11-03T08:07:32;1;1;
60266;PMS5003;46125;61.360;-149.532;2022-11-03T08:10:01;1;0;
60266;PMS5003;46125;61.360;-149.532;2022-11-03T08:12:31;1;1;
60266;PMS5003;46125;61.360;-149.532;2022-11-03T08:14:59;0;0;
60266;PMS5003;46125;61.360;-149.532;2022-11-03T08:17:29;1;1;
60266;PMS5003;46125;61.360;-149.532;2022-11-03T08:19:57;1;1;
60266;PMS5003;46125;61.360;-149.532;2022-11-03T08:22:26;0;0;
60266;PMS5003;46125;61.360;-149.532;2022-11-03T08:24:54;1;0;
60266;PMS5003;46125;61.360;-149.532;2022-11-03T08:27:23;0;0;
60266;PMS5003;46125;61.360;-149.532;2022-11-03T08:29:52;0;0;
60266;PMS5003;46125;61.360;-149.532;2022-11-03T08:32:20;0;0;
60266;PMS5003;46125;61.360;-149.532;2022-11-03T08:34:49;0;0;
60266;PMS5003;46125;61.360;-149.532;2022-11-03T08:37:18;0;0;
60266;PMS5003;46125;61.360;-149.532;2022-11-03T08:39:46;0;0;
60266;PMS5003;46125;61.360;-149.532;2022-11-03T08:42:15;1;0;
60266;PMS5003;46125;61.360;-149.532;2022-11-03T08:44:43;0;0;
60266;PMS5003;46125;61.360;-149.532;2022-11-03T08:47:12;0;0;
60266;PMS5003;46125;61.360;-149.532;2022-11-03T08:49:41;1;0;
60266;PMS5003;46125;61.360;-149.532;2022-11-03T08:52:09;0;0;
60266;PMS5003;46125;61.360;-149.532;2022-11-03T08:54:38;1;1;
60266;PMS5003;46125;61.360;-149.532;2022-11-03T08:57:06;2;0;
60266;PMS5003;46125;61.360;-149.532;2022-11-03T08:59:35;0;0;
60266;PMS5003;46125;61.360;-149.532;2022-11-03T09:02:04;0;0;
60266;PMS5003;46125;61.360;-149.532;2022-11-03T09:04:32;0;0;
60266;PMS5003;46125;61.360;-149.532;2022-11-03T09:07:01;0;0;
60266;PMS5003;46125;61.360;-149.532;2022-11-03T09:09:29;1;0;
60266;PMS5003;46125;61.360;-149.532;2022-11-03T09:11:58;0;0;
60266;PMS5003;46125;61.360;-149.532;2022-11-03T09:14:27;0;0;
60266;PMS5003;46125;61.360;-149.532;2022-11-03T09:16:55;0;0;
60266;PMS5003;46125;61.360;-149.532;2022-11-03T09:19:25;0;0;
60266;PMS5003;46125;61.360;-149.532;2022-11-03T09:21:54;2;0;
60266;PMS5003;46125;61.360;-149.532;2022-11-03T09:24:22;1;0;
60266;PMS5003;46125;61.360;-149.532;2022-11-03T09:26:51;0;0;
60266;PMS5003;46125;61.360;-149.532;2022-11-03T09:29:19;0;0;
60266;PMS5003;46125;61.360;-149.532;2022-11-03T09:31:48;0;0;
60266;PMS5003;46125;61.360;-149.532;2022-11-03T09:34:17;0;0;
60266;PMS5003;46125;61.360;-149.532;2022-11-03T09:36:45;0;0;
60266;PMS5003;46125;61.360;-149.532;2022-11-03T09:39:14;0;0;
60266;PMS5003;46125;61.360;-149.532;2022-11-03T09:41:42;0;0;
60266;PMS5003;46125;61.360;-149.532;2022-11-03T09:44:11;2;0;
60266;PMS5003;46125;61.360;-149.532;2022-11-03T09:46:40;1;0;
60266;PMS5003;46125;61.360;-149.532;2022-11-03T09:49:10;0;0;
60266;PMS5003;46125;61.360;-149.532;2022-11-03T09:51:40;0;0;
60266;PMS5003;46125;61.360;-149.532;2022-11-03T09:54:11;0;0;
60266;PMS5003;46125;61.360;-149.532;2022-11-03T09:56:42;1;0;
60266;PMS5003;46125;61.360;-149.532;2022-11-03T09:59:13;0;0;
60266;PMS5003;46125;61.360;-149.532;2022-11-03T10:01:43;0;0;
60266;PMS5003;46125;61.360;-149.532;2022-11-03T10:04:12;0;0;
60266;PMS5003;46125;61.360;-149.532;2022-11-03T10:06:42;0;0;
60266;PMS5003;46125;61.360;-149.532;2022-11-03T10:09:13;0;0;
60266;PMS5003;46125;61.360;-149.532;2022-11-03T10:11:43;0;0;
60266;PMS5003;46125;61.360;-149.532;2022-11-03T10:14:13;0;0;
60266;PMS5003;46125;61.360;-149.532;2022-11-03T10:16:44;1;0;
60266;PMS5003;46125;61.360;-149.532;2022-11-03T10:19:22;1;0;
60266;PMS5003;46125;61.360;-149.532;2022-11-03T10:21:52;0;0;
60266;PMS5003;46125;61.360;-149.532;2022-11-03T10:24:21;0;0;
60266;PMS5003;46125;61.360;-149.532;2022-11-03T10:26:52;1;0;
60266;PMS5003;46125;61.360;-149.532;2022-11-03T10:29:21;0;0;
60266;PMS5003;46125;61.360;-149.532;2022-11-03T10:31:51;0;0;
60266;PMS5003;46125;61.360;-149.532;2022-11-03T10:34:25;0;0;
60266;PMS5003;46125;61.360;-149.532;2022-11-03T10:37:15;0;0;
60266;PMS5003;46125;61.360;-149.532;2022-11-03T10:39:46;1;1;
60266;PMS5003;46125;61.360;-149.532;2022-11-03T10:42:17;0;0;
60266;PMS5003;46125;61.360;-149.532;2022-11-03T10:44:47;0;0;
60266;PMS5003;46125;61.360;-149.532;2022-11-03T10:47:23;1;0;
60266;PMS5003;46125;61.360;-149.532;2022-11-03T10:49:57;0;0;
60266;PMS5003;46125;61.360;-149.532;2022-11-03T10:52:27;0;0;
60266;PMS5003;46125;61.360;-149.532;2022-11-03T10:54:55;0;0;
60266;PMS5003;46125;61.360;-149.532;2022-11-03T10:57:25;0;0;
60266;PMS5003;46125;61.360;-149.532;2022-11-03T10:59:54;0;0;
60266;PMS5003;46125;61.360;-149.532;2022-11-03T11:02:23;0;0;
60266;PMS5003;46125;61.360;-149.532;2022-11-03T11:04:56;0;0;
60266;PMS5003;46125;61.360;-149.532;2022-11-03T11:07:28;0;0;
60266;PMS5003;46125;61.360;-149.532;2022-11-03T11:10:04;0;0;
60266;PMS5003;46125;61.360;-149.532;2022-11-03T11:12:37;0;0;
60266;PMS5003;46125;61.360;-149.532;2022-11-03T11:15:34;0;0;
60266;PMS5003;46125;61.360;-149.532;2022-11-03T11:18:06;0;0;
60266;PMS5003;46125;61.360;-149.532;2022-11-03T11:20:36;0;0;
60266;PMS5003;46125;61.360;-149.532;2022-11-03T11:23:43;0;0;
60266;PMS5003;46125;61.360;-149.532;2022-11-03T11:26:14;0;0;
60266;PMS5003;46125;61.360;-149.532;2022-11-03T11:29:32;0;0;
60266;PMS5003;46125;61.360;-149.532;2022-11-03T11:32:32;0;0;
60266;PMS5003;46125;61.360;-149.532;2022-11-03T11:36:02;0;0;
60266;PMS5003;46125;61.360;-149.532;2022-11-03T11:38:55;0;0;
60266;PMS5003;46125;61.360;-149.532;2022-11-03T11:42:30;2;0;
60266;PMS5003;46125;61.360;-149.532;2022-11-03T11:44:59;0;0;
60266;PMS5003;46125;61.360;-149.532;2022-11-03T11:47:46;0;0;
60266;PMS5003;46125;61.360;-149.532;2022-11-03T11:50:20;0;0;
60266;PMS5003;46125;61.360;-149.532;2022-11-03T11:52:55;0;0;
60266;PMS5003;46125;61.360;-149.532;2022-11-03T11:55:30;0;0;
60266;PMS5003;46125;61.360;-149.532;2022-11-03T11:58:05;0;0;
60266;PMS5003;46125;61.360;-149.532;2022-11-03T12:00:52;0;0;
60266;PMS5003;46125;61.360;-149.532;2022-11-03T12:03:27;0;0;
60266;PMS5003;46125;61.360;-149.532;2022-11-03T12:05:58;0;0;
60266;PMS5003;46125;61.360;-149.532;2022-11-03T12:08:28;0;0;
60266;PMS5003;46125;61.360;-149.532;2022-11-03T12:10:58;0;0;
60266;PMS5003;46125;61.360;-149.532;2022-11-03T12:13:40;0;0;
60266;PMS5003;46125;61.360;-149.532;2022-11-03T12:16:25;0;0;
60266;PMS5003;46125;61.360;-149.532;2022-11-03T12:18:54;0;0;
60266;PMS5003;46125;61.360;-149.532;2022-11-03T12:21:44;1;0;
60266;PMS5003;46125;61.360;-149.532;2022-11-03T12:24:48;0;0;
60266;PMS5003;46125;61.360;-149.532;2022-11-03T12:27:49;0;0;
60266;PMS5003;46125;61.360;-149.532;2022-11-03T12:30:18;0;0;
60266;PMS5003;46125;61.360;-149.532;2022-11-03T12:32:46;0;0;
60266;PMS5003;46125;61.360;-149.532;2022-11-03T12:35:15;0;0;
60266;PMS5003;46125;61.360;-149.532;2022-11-03T12:37:43;0;0;
60266;PMS5003;46125;61.360;-149.532;2022-11-03T12:40:12;0;0;
60266;PMS5003;46125;61.360;-149.532;2022-11-03T12:42:41;0;0;
60266;PMS5003;46125;61.360;-149.532;2022-11-03T12:45:10;1;1;
60266;PMS5003;46125;61.360;-149.532;2022-11-03T12:47:38;0;0;
60266;PMS5003;46125;61.360;-149.532;2022-11-03T12:50:07;0;0;
60266;PMS5003;46125;61.360;-149.532;2022-11-03T12:52:36;3;3;
60266;PMS5003;46125;61.360;-149.532;2022-11-03T12:55:05;1;1;
60266;PMS5003;46125;61.360;-149.532;2022-11-03T12:57:34;3;2;
60266;PMS5003;46125;61.360;-149.532;2022-11-03T13:00:03;1;1;
60266;PMS5003;46125;61.360;-149.532;2022-11-03T13:02:32;3;1;
60266;PMS5003;46125;61.360;-149.532;2022-11-03T13:05:01;0;0;
60266;PMS5003;46125;61.360;-149.532;2022-11-03T13:07:29;7;5;
60266;PMS5003;46125;61.360;-149.532;2022-11-03T13:09:58;4;4;
60266;PMS5003;46125;61.360;-149.532;2022-11-03T13:12:26;1;1;
60266;PMS5003;46125;61.360;-149.532;2022-11-03T13:14:55;0;0;
60266;PMS5003;46125;61.360;-149.532;2022-11-03T13:17:24;2;2;
60266;PMS5003;46125;61.360;-149.532;2022-11-03T13:19:52;2;2;
60266;PMS5003;46125;61.360;-149.532;2022-11-03T13:22:21;1;1;
60266;PMS5003;46125;61.360;-149.532;2022-11-03T13:24:51;0;0;
60266;PMS5003;46125;61.360;-149.532;2022-11-03T13:27:19;0;0;
60266;PMS5003;46125;61.360;-149.532;2022-11-03T13:29:48;1;1;
60266;PMS5003;46125;61.360;-149.532;2022-11-03T13:32:16;2;2;
60266;PMS5003;46125;61.360;-149.532;2022-11-03T13:34:45;1;1;
60266;PMS5003;46125;61.360;-149.532;2022-11-03T13:37:14;0;0;
60266;PMS5003;46125;61.360;-149.532;2022-11-03T13:39:42;0;0;
60266;PMS5003;46125;61.360;-149.532;2022-11-03T13:42:11;0;0;
60266;PMS5003;46125;61.360;-149.532;2022-11-03T13:44:39;0;0;
60266;PMS5003;46125;61.360;-149.532;2022-11-03T13:47:08;0;0;
60266;PMS5003;46125;61.360;-149.532;2022-11-03T13:49:37;0;0;
60266;PMS5003;46125;61.360;-149.532;2022-11-03T13:52:05;0;0;
60266;PMS5003;46125;61.360;-149.532;2022-11-03T13:54:34;0;0;
60266;PMS5003;46125;61.360;-149.532;2022-11-03T13:57:03;0;0;
60266;PMS5003;46125;61.360;-149.532;2022-11-03T13:59:31;0;0;
60266;PMS5003;46125;61.360;-149.532;2022-11-03T14:02:00;0;0;
60266;PMS5003;46125;61.360;-149.532;2022-11-03T14:04:28;0;0;
60266;PMS5003;46125;61.360;-149.532;2022-11-03T14:06:57;0;0;
60266;PMS5003;46125;61.360;-149.532;2022-11-03T14:09:26;1;0;
60266;PMS5003;46125;61.360;-149.532;2022-11-03T14:11:54;0;0;
60266;PMS5003;46125;61.360;-149.532;2022-11-03T14:14:23;0;0;
60266;PMS5003;46125;61.360;-149.532;2022-11-03T14:16:51;0;0;
60266;PMS5003;46125;61.360;-149.532;2022-11-03T14:19:20;0;0;
60266;PMS5003;46125;61.360;-149.532;2022-11-03T14:21:49;1;0;
60266;PMS5003;46125;61.360;-149.532;2022-11-03T14:24:17;0;0;
60266;PMS5003;46125;61.360;-149.532;2022-11-03T14:26:47;0;0;
60266;PMS5003;46125;61.360;-149.532;2022-11-03T14:29:15;0;0;
60266;PMS5003;46125;61.360;-149.532;2022-11-03T14:31:44;0;0;
60266;PMS5003;46125;61.360;-149.532;2022-11-03T14:34:13;0;0;
60266;PMS5003;46125;61.360;-149.532;2022-11-03T14:36:41;0;0;
60266;PMS5003;46125;61.360;-149.532;2022-11-03T14:39:10;0;0;
60266;PMS5003;46125;61.360;-149.532;2022-11-03T14:41:38;0;0;
60266;PMS5003;46125;61.360;-149.532;2022-11-03T14:44:07;0;0;
60266;PMS5003;46125;61.360;-149.532;2022-11-03T14:46:36;0;0;
60266;PMS5003;46125;61.360;-149.532;2022-11-03T14:49:04;0;0;
60266;PMS5003;46125;61.360;-149.532;2022-11-03T14:51:33;0;0;
60266;PMS5003;46125;61.360;-149.532;2022-11-03T14:54:01;0;0;
60266;PMS5003;46125;61.360;-149.532;2022-11-03T14:56:31;0;0;
60266;PMS5003;46125;61.360;-149.532;2022-11-03T14:58:59;0;0;
60266;PMS5003;46125;61.360;-149.532;2022-11-03T15:01:27;0;0;
60266;PMS5003;46125;61.360;-149.532;2022-11-03T15:03:56;0;0;
60266;PMS5003;46125;61.360;-149.532;2022-11-03T15:06:25;0;0;
60266;PMS5003;46125;61.360;-149.532;2022-11-03T15:08:53;0;0;
60266;PMS5003;46125;61.360;-149.532;2022-11-03T15:11:22;0;0;
60266;PMS5003;46125;61.360;-149.532;2022-11-03T15:13:50;0;0;
60266;PMS5003;46125;61.360;-149.532;2022-11-03T15:16:19;0;0;
60266;PMS5003;46125;61.360;-149.532;2022-11-03T15:18:49;0;0;
60266;PMS5003;46125;61.360;-149.532;2022-11-03T15:21:17;0;0;
60266;PMS5003;46125;61.360;-149.532;2022-11-03T15:23:46;0;0;
60266;PMS5003;46125;61.360;-149.532;2022-11-03T15:26:14;0;0;
60266;PMS5003;46125;61.360;-149.532;2022-11-03T15:28:44;0;0;
60266;PMS5003;46125;61.360;-149.532;2022-11-03T15:31:12;0;0;
60266;PMS5003;46125;61.360;-149.532;2022-11-03T15:33:41;0;0;
60266;PMS5003;46125;61.360;-149.532;2022-11-03T15:36:10;0;0;
60266;PMS5003;46125;61.360;-149.532;2022-11-03T15:38:38;0;0;
60266;PMS5003;46125;61.360;-149.532;2022-11-03T15:41:07;0;0;
60266;PMS5003;46125;61.360;-149.532;2022-11-03T15:43:36;0;0;
60266;PMS5003;46125;61.360;-149.532;2022-11-03T15:46:04;0;0;
60266;PMS5003;46125;61.360;-149.532;2022-11-03T15:48:33;0;0;
60266;PMS5003;46125;61.360;-149.532;2022-11-03T15:51:01;0;0;
60266;PMS5003;46125;61.360;-149.532;2022-11-03T15:53:30;0;0;
60266;PMS5003;46125;61.360;-149.532;2022-11-03T15:55:59;0;0;
60266;PMS5003;46125;61.360;-149.532;2022-11-03T15:58:27;0;0;
60266;PMS5003;46125;61.360;-149.532;2022-11-03T16:00:56;0;0;
60266;PMS5003;46125;61.360;-149.532;2022-11-03T16:03:24;0;0;
60266;PMS5003;46125;61.360;-149.532;2022-11-03T16:05:53;0;0;
60266;PMS5003;46125;61.360;-149.532;2022-11-03T16:08:22;0;0;
60266;PMS5003;46125;61.360;-149.532;2022-11-03T16:10:50;0;0;
60266;PMS5003;46125;61.360;-149.532;2022-11-03T16:13:19;0;0;
60266;PMS5003;46125;61.360;-149.532;2022-11-03T16:15:48;0;0;
60266;PMS5003;46125;61.360;-149.532;2022-11-03T16:18:16;0;0;
60266;PMS5003;46125;61.360;-149.532;2022-11-03T16:20:45;0;0;
60266;PMS5003;46125;61.360;-149.532;2022-11-03T16:23:13;1;0;
60266;PMS5003;46125;61.360;-149.532;2022-11-03T16:25:42;0;0;
60266;PMS5003;46125;61.360;-149.532;2022-11-03T16:28:11;2;0;
60266;PMS5003;46125;61.360;-149.532;2022-11-03T16:30:40;0;0;